Time;durP1;ratioP1;P1;durP2;ratioP2;P2;SDS_P1;SDS_P2;PMS_P1;PMS_P2;Temp;Humidity;BMP_temperature;BMP_pressure;BME280_temperature;BME280_humidity;BME280_pressure;Samples;Min_cycle;Max_cycle;Signal;HPM_P1;HPM_P2
2023/01/11 00:01:14;;;;;;;17.67;7.32;;;;;;;-0.94;100.00;98713.59;2587016;28;20165;-86
2023/01/11 00:02:31;;;;;;;22.95;6.57;;;;;;;-1.01;100.00;98710.03;2586898;28;20054;-86
2023/01/11 00:03:46;;;;;;;12.70;6.75;;;;;;;-1.06;100.00;98713.31;2586891;28;20046;-86
2023/01/11 00:05:03;;;;;;;13.73;6.63;;;;;;;-0.88;100.00;98708.63;2586801;28;20081;-86
2023/01/11 00:06:18;;;;;;;14.60;6.63;;;;;;;-1.08;100.00;98707.28;2586656;28;20062;-86
2023/01/11 00:07:34;;;;;;;15.80;6.75;;;;;;;-1.06;100.00;98705.63;2586804;28;20588;-86
2023/01/11 00:08:49;;;;;;;12.32;6.30;;;;;;;-0.88;100.00;98708.63;2586979;28;20050;-85
2023/01/11 00:10:08;;;;;;;18.10;6.43;;;;;;;-0.83;100.00;98705.28;2586974;28;20440;-86
2023/01/11 00:11:24;;;;;;;15.38;5.93;;;;;;;-0.90;100.00;98702.59;2586549;28;20532;-88
2023/01/11 00:12:40;;;;;;;14.23;6.78;;;;;;;-0.85;100.00;98700.09;2586808;28;20057;-86
2023/01/11 00:13:55;;;;;;;18.45;6.57;;;;;;;-0.74;100.00;98702.91;2586825;28;20938;-86
2023/01/11 00:15:11;;;;;;;15.57;6.55;;;;;;;-0.77;100.00;98696.00;2587013;28;20061;-86
2023/01/11 00:16:27;;;;;;;12.93;6.20;;;;;;;-0.83;100.00;98695.88;2586764;28;20492;-86
2023/01/11 00:17:43;;;;;;;16.17;6.53;;;;;;;-0.70;100.00;98697.00;2586901;28;20077;-85
2023/01/11 00:18:58;;;;;;;19.08;7.75;;;;;;;-0.76;100.00;98692.59;2586225;28;20050;-85
2023/01/11 00:20:14;;;;;;;21.73;9.20;;;;;;;-0.82;100.00;98699.28;2587070;28;20104;-85
2023/01/11 00:21:30;;;;;;;25.50;11.48;;;;;;;-0.81;100.00;98698.47;2586646;28;20058;-89
2023/01/11 00:22:45;;;;;;;41.63;14.75;;;;;;;-0.59;100.00;98700.66;2586769;28;20067;-85
2023/01/11 00:24:01;;;;;;;29.92;11.50;;;;;;;-0.63;100.00;98695.41;2586807;28;20084;-86
2023/01/11 00:25:17;;;;;;;30.73;12.40;;;;;;;-0.68;100.00;98697.03;2586648;28;20045;-86
2023/01/11 00:26:32;;;;;;;28.70;10.63;;;;;;;-1.08;100.00;98695.31;2586912;28;20077;-86
2023/01/11 00:27:48;;;;;;;24.75;10.52;;;;;;;-1.21;100.00;98694.16;2586850;28;20092;-86
2023/01/11 00:29:03;;;;;;;24.27;9.98;;;;;;;-1.26;100.00;98698.31;2586620;28;20052;-85
2023/01/11 00:30:19;;;;;;;24.13;9.80;;;;;;;-1.03;100.00;98688.56;2586660;28;20046;-85
2023/01/11 00:31:35;;;;;;;28.80;10.32;;;;;;;-1.12;100.00;98690.91;2585842;28;20053;-85
2023/01/11 00:32:56;;;;;;;18.42;7.93;;;;;;;-1.33;100.00;98688.72;2586890;28;20053;-87
2023/01/11 00:34:11;;;;;;;17.80;7.47;;;;;;;-1.39;100.00;98686.03;2586857;28;20128;-86
2023/01/11 00:35:30;;;;;;;20.55;8.60;;;;;;;-1.28;100.00;98682.00;2586700;28;20053;-85
2023/01/11 00:36:45;;;;;;;13.93;7.00;;;;;;;-1.39;100.00;98683.44;2586144;28;20049;-86
2023/01/11 00:38:01;;;;;;;15.27;7.78;;;;;;;-1.27;100.00;98681.19;2586870;28;20057;-85
2023/01/11 00:39:17;;;;;;;13.25;6.70;;;;;;;-1.38;100.00;98678.38;2586701;28;20054;-87
2023/01/11 00:40:32;;;;;;;16.05;7.18;;;;;;;-1.25;100.00;98674.38;2586603;28;20046;-86
2023/01/11 00:48:06;;;;;;;12.57;5.22;;;;;;;-1.58;100.00;98670.19;2586751;28;20416;-85
2023/01/11 00:49:22;;;;;;;10.02;4.60;;;;;;;-1.18;100.00;98668.56;2586583;28;20046;-85
2023/01/11 00:50:39;;;;;;;17.05;5.47;;;;;;;-1.12;100.00;98672.94;2586712;28;20057;-86
2023/01/11 00:51:55;;;;;;;15.07;6.10;;;;;;;-1.07;100.00;98670.47;2586205;28;20053;-86
2023/01/11 00:53:13;;;;;;;13.40;5.72;;;;;;;-1.22;100.00;98668.44;2586616;28;20073;-85
2023/01/11 00:54:28;;;;;;;16.83;5.35;;;;;;;-1.11;100.00;98666.13;2586414;28;20697;-85
2023/01/11 00:55:44;;;;;;;13.18;5.60;;;;;;;-1.09;100.00;98660.19;2586351;28;20077;-86
2023/01/11 00:57:00;;;;;;;10.30;4.82;;;;;;;-1.33;100.00;98665.59;2586577;28;20511;-86
2023/01/11 00:58:15;;;;;;;13.35;5.60;;;;;;;-1.21;100.00;98662.47;2586418;28;20135;-85
2023/01/11 00:59:34;;;;;;;10.90;4.57;;;;;;;-1.05;100.00;98667.13;2586503;28;20045;-86
2023/01/11 01:00:50;;;;;;;13.65;5.32;;;;;;;-1.06;100.00;98660.25;2586413;28;20504;-86
2023/01/11 01:02:06;;;;;;;10.10;4.65;;;;;;;-0.89;100.00;98662.31;2586237;28;20361;-87
2023/01/11 01:03:22;;;;;;;14.88;4.53;;;;;;;-0.84;100.00;98658.13;2586282;28;20050;-85
2023/01/11 01:04:38;;;;;;;10.00;4.95;;;;;;;-1.13;100.00;98663.50;2586397;28;20037;-86
2023/01/11 01:05:54;;;;;;;11.32;5.00;;;;;;;-1.02;100.00;98658.63;2586038;28;20136;-86
2023/01/11 01:07:10;;;;;;;9.75;4.68;;;;;;;-0.80;100.00;98657.38;2586150;28;20108;-89
2023/01/11 01:08:26;;;;;;;11.02;5.40;;;;;;;-0.91;100.00;98663.97;2585640;28;20050;-85
2023/01/11 01:09:42;;;;;;;15.55;5.07;;;;;;;-0.96;100.00;98663.88;2585604;28;20054;-84
2023/01/11 01:10:57;;;;;;;10.60;5.10;;;;;;;-1.20;100.00;98662.50;2586102;28;20045;-84
2023/01/11 01:14:24;;;;;;;10.65;5.20;;;;;;;-1.10;100.00;98666.16;2585870;28;20136;-85
2023/01/11 01:15:23;;;;;;;12.50;5.35;;;;;;;-1.13;100.00;98658.34;2585435;28;20049;-85
2023/01/11 01:16:41;;;;;;;19.38;6.82;;;;;;;-1.06;100.00;98655.09;2585978;28;20097;-87
2023/01/11 01:17:56;;;;;;;15.10;7.10;;;;;;;-1.29;100.00;98660.56;2586142;28;20054;-85
2023/01/11 01:19:12;;;;;;;16.73;6.65;;;;;;;-1.17;100.00;98657.44;2586417;28;20144;-84
2023/01/11 01:20:28;;;;;;;14.52;6.88;;;;;;;-0.90;100.00;98650.28;2585790;28;20085;-86
2023/01/11 01:21:43;;;;;;;16.45;6.90;;;;;;;-0.87;100.00;98651.22;2586018;28;20485;-85
2023/01/11 01:22:59;;;;;;;16.08;6.95;;;;;;;-0.88;100.00;98652.06;2585861;28;20046;-88
2023/01/11 01:24:15;;;;;;;22.15;10.18;;;;;;;-1.01;100.00;98652.63;2585769;28;20108;-87
2023/01/11 01:25:30;;;;;;;20.45;9.52;;;;;;;-0.84;100.00;98655.56;2585808;28;20085;-85
2023/01/11 01:26:46;;;;;;;17.98;8.02;;;;;;;-0.82;100.00;98653.91;2586002;28;20065;-85
2023/01/11 01:28:02;;;;;;;21.80;9.43;;;;;;;-0.94;100.00;98651.06;2586011;28;20053;-84
2023/01/11 01:29:17;;;;;;;20.58;7.60;;;;;;;-1.19;100.00;98648.84;2586134;28;20050;-84
2023/01/11 01:30:33;;;;;;;13.63;7.10;;;;;;;-1.22;100.00;98647.91;2584373;28;20550;-88
2023/01/11 01:31:49;;;;;;;14.88;7.50;;;;;;;-1.08;100.00;98654.22;2585625;28;20132;-85
2023/01/11 01:33:05;;;;;;;17.48;7.93;;;;;;;-1.14;100.00;98654.06;2581610;28;20050;-85
2023/01/11 01:34:20;;;;;;;26.38;9.80;;;;;;;-1.09;100.00;98654.16;2581611;28;20073;-86
2023/01/11 01:35:37;;;;;;;26.73;11.38;;;;;;;-1.29;100.00;98652.03;2585552;28;20052;-86
2023/01/11 01:36:52;;;;;;;29.48;10.25;;;;;;;-1.14;100.00;98648.91;2585385;28;20064;-85
2023/01/11 01:38:08;;;;;;;26.90;11.65;;;;;;;-0.98;100.00;98647.56;2585907;28;20049;-85
2023/01/11 01:39:23;;;;;;;27.80;13.02;;;;;;;-0.98;100.00;98647.56;2585828;28;20050;-85
2023/01/11 01:40:41;;;;;;;34.75;14.95;;;;;;;-0.84;100.00;98644.41;2585997;28;20061;-86
2023/01/11 01:41:57;;;;;;;42.60;16.17;;;;;;;-0.80;100.00;98644.53;2586020;28;20049;-85
2023/01/11 01:43:16;;;;;;;37.60;15.65;;;;;;;-1.16;100.00;98648.91;2586126;28;20053;-90
2023/01/11 01:44:58;;;;;;;34.05;14.52;;;;;;;-0.98;100.00;98638.97;2585869;28;20074;-86
2023/01/11 01:46:16;;;;;;;38.00;13.50;;;;;;;-0.95;100.00;98644.19;2585702;28;20061;-85
2023/01/11 01:47:38;;;;;;;39.85;14.68;;;;;;;-0.91;100.00;98628.88;2585724;28;20468;-90
2023/01/11 01:49:03;;;;;;;31.13;14.00;;;;;;;-0.91;100.00;98630.56;2585907;28;20054;-85
2023/01/11 01:50:28;;;;;;;29.35;13.30;;;;;;;-0.82;100.00;98633.34;2585823;28;20054;-85
2023/01/11 01:51:50;;;;;;;32.35;13.25;;;;;;;-0.73;100.00;98619.81;2586010;28;20081;-86
2023/01/11 01:53:30;;;;;;;32.00;13.75;;;;;;;-0.82;100.00;98623.06;2585798;28;20780;-84
2023/01/11 01:54:48;;;;;;;29.13;13.07;;;;;;;-1.19;100.00;98618.00;2576549;28;20133;-84
2023/01/11 01:56:12;;;;;;;38.08;13.88;;;;;;;-1.03;100.00;98616.63;2585604;28;20081;-86
2023/01/11 01:57:33;;;;;;;29.75;12.93;;;;;;;-0.83;100.00;98616.19;2585876;28;20076;-85
2023/01/11 01:59:00;;;;;;;34.75;13.50;;;;;;;-0.87;100.00;98619.50;2585627;28;20060;-88
2023/01/11 02:00:16;;;;;;;28.30;13.15;;;;;;;-1.02;100.00;98615.78;2585722;28;20072;-85
2023/01/11 02:01:47;;;;;;;35.55;14.32;;;;;;;-0.93;100.00;98612.53;2586089;28;20057;-85
2023/01/11 02:03:03;;;;;;;36.28;14.10;;;;;;;-0.85;100.00;98620.41;2585934;28;20046;-84
2023/01/11 02:04:23;;;;;;;37.10;13.70;;;;;;;-0.65;100.00;98617.38;2585506;28;20488;-85
2023/01/11 02:05:39;;;;;;;30.40;13.07;;;;;;;-0.82;100.00;98617.03;2585315;28;20064;-88
2023/01/11 02:07:20;;;;;;;33.78;13.68;;;;;;;-0.69;100.00;98613.03;2585411;28;20061;-84
2023/01/11 02:08:39;;;;;;;28.73;13.10;;;;;;;-0.80;100.00;98612.78;2585273;28;20100;-86
2023/01/11 02:10:03;;;;;;;36.22;13.57;;;;;;;-0.81;100.00;98611.94;2585488;28;20049;-84
2023/01/11 02:11:31;;;;;;;31.77;12.98;;;;;;;-0.78;100.00;98612.00;2585559;28;20050;-85
2023/01/11 02:13:00;;;;;;;36.95;14.77;;;;;;;-0.71;100.00;98610.41;2585742;28;20053;-85
2023/01/11 02:14:19;;;;;;;32.97;14.30;;;;;;;-0.87;100.00;98614.38;2585700;28;20544;-84
2023/01/11 02:15:35;;;;;;;27.00;10.40;;;;;;;-1.30;100.00;98611.75;2585600;28;20046;-85
2023/01/11 02:16:50;;;;;;;21.45;8.68;;;;;;;-1.08;100.00;98607.06;2585655;28;20141;-84
2023/01/11 02:18:11;;;;;;;16.08;5.93;;;;;;;-1.36;100.00;98611.59;2586089;28;20096;-85
2023/01/11 02:19:52;;;;;;;11.68;5.50;;;;;;;-0.74;100.00;98603.50;2585535;28;20050;-84
2023/01/11 02:21:47;;;;;;;12.57;5.03;;;;;;;-0.38;100.00;98596.47;2585646;28;20060;-84
2023/01/11 02:23:15;;;;;;;9.80;5.20;;;;;;;-0.23;100.00;98588.16;2585474;28;20463;-85
2023/01/11 02:24:58;;;;;;;16.77;6.05;;;;;;;-0.64;100.00;98598.53;2585262;28;20053;-84
2023/01/11 02:26:25;;;;;;;;;;;;;;;-0.88;100.00;98598.09;2586104;28;20507;-85
2023/01/11 02:28:00;;;;;;;16.73;8.98;;;;;;;-0.64;100.00;98588.25;2585150;28;19925;-84
2023/01/11 02:29:40;;;;;;;25.33;9.95;;;;;;;-0.56;100.00;98581.53;2584656;28;20050;-84
2023/01/11 02:31:33;;;;;;;27.42;11.63;;;;;;;-0.22;100.00;98571.88;2585071;28;20056;-84
2023/01/11 02:32:55;;;;;;;;;;;;;;;-0.16;100.00;98571.13;2586042;28;20058;-85
2023/01/11 02:34:33;;;;;;;27.75;11.32;;;;;;;-0.68;100.00;98573.63;2585421;28;19976;-85
2023/01/11 02:36:11;;;;;;;28.13;11.82;;;;;;;-0.64;100.00;98567.69;2585430;28;20053;-86
2023/01/11 02:37:50;;;;;;;32.03;11.98;;;;;;;-0.46;100.00;98570.59;2536719;28;20151;-89
2023/01/11 02:39:29;;;;;;;27.55;12.77;;;;;;;-0.75;100.00;98567.50;2583927;28;20153;-84
2023/01/11 02:41:12;;;;;;;30.27;13.20;;;;;;;-0.61;100.00;98563.47;2585380;28;20046;-84
2023/01/11 02:45:54;;;;;;;28.52;12.10;;;;;;;-0.32;100.00;98550.28;2585513;28;20056;-84
2023/01/11 02:47:17;;;;;;;24.48;11.13;;;;;;;-0.30;100.00;98552.84;2585185;28;20046;-86
2023/01/11 02:48:49;;;;;;;18.90;9.85;;;;;;;-0.41;100.00;98555.25;2585542;28;20424;-84
2023/01/11 02:50:15;;;;;;;22.27;10.90;;;;;;;-0.26;100.00;98541.81;2585541;28;20596;-83
2023/01/11 02:51:42;;;;;;;26.13;10.05;;;;;;;-0.45;100.00;98543.19;2585654;28;20396;-85
2023/01/11 02:53:06;;;;;;;22.00;10.93;;;;;;;-0.51;100.00;98545.63;2585620;28;20614;-84
2023/01/11 02:54:23;;;;;;;27.75;10.98;;;;;;;-0.37;100.00;98546.75;2585351;28;20085;-88
2023/01/11 02:55:44;;;;;;;22.30;10.43;;;;;;;-0.10;100.00;98542.91;2585568;28;20495;-84
2023/01/11 02:57:02;;;;;;;23.55;10.43;;;;;;;-0.15;100.00;98540.25;2585546;28;20057;-85
2023/01/11 02:58:20;;;;;;;24.13;9.55;;;;;;;-0.23;100.00;98549.56;2585391;28;20383;-86
2023/01/11 02:59:38;;;;;;;21.33;10.05;;;;;;;-0.16;100.00;98543.66;2585245;28;20042;-84
2023/01/11 03:00:57;;;;;;;24.98;9.88;;;;;;;-0.07;100.00;98549.81;2585238;28;20092;-85
2023/01/11 03:02:12;;;;;;;24.25;11.00;;;;;;;0.02;100.00;98543.94;2585480;28;20073;-84
2023/01/11 03:03:28;;;;;;;28.30;12.27;;;;;;;0.00;100.00;98554.25;2585266;28;20677;-85
2023/01/11 03:04:44;;;;;;;28.52;11.68;;;;;;;0.09;100.00;98548.38;2585386;28;20366;-86
2023/01/11 03:06:05;;;;;;;27.35;12.38;;;;;;;0.22;100.00;98544.25;2585443;28;20077;-84
2023/01/11 03:07:51;;;;;;;23.90;11.43;;;;;;;0.24;100.00;98542.56;2583041;28;20132;-85
2023/01/11 03:09:18;;;;;;;31.92;12.52;;;;;;;0.13;100.00;98538.13;2584596;28;20042;-85
2023/01/11 03:11:01;;;;;;;32.42;14.25;;;;;;;0.08;100.00;98539.75;2585456;28;20088;-85
2023/01/11 03:14:16;;;;;;;36.88;15.25;;;;;;;-0.29;100.00;98541.72;2585351;28;20132;-84
2023/01/11 03:16:01;;;;;;;34.75;15.02;;;;;;;-0.18;100.00;98535.06;2585376;28;20164;-86
2023/01/11 03:17:55;;;;;;;34.42;14.65;;;;;;;-0.35;100.00;98536.50;2585044;28;20054;-88
2023/01/11 03:19:45;;;;;;;34.17;14.52;;;;;;;-0.09;100.00;98536.91;2574246;28;20054;-85
2023/01/11 03:21:10;;;;;;;31.60;14.60;;;;;;;0.10;100.00;98532.94;2585623;28;20050;-84
2023/01/11 03:22:44;;;;;;;33.33;15.18;;;;;;;0.24;100.00;98530.56;2585555;28;20105;-84
2023/01/11 03:24:21;;;;;;;31.45;14.68;;;;;;;0.25;100.00;98534.00;2585068;28;20081;-85
2023/01/11 03:25:40;;;;;;;36.15;15.35;;;;;;;0.29;100.00;98530.66;2585526;28;20064;-85
2023/01/11 03:27:17;;;;;;;30.48;14.35;;;;;;;0.44;100.00;98521.41;2585240;28;20085;-85
2023/01/11 03:28:42;;;;;;;31.75;13.68;;;;;;;0.16;100.00;98521.88;2585366;28;20060;-86
2023/01/11 03:30:14;;;;;;;33.03;16.45;;;;;;;0.37;100.00;98512.72;2585383;28;20089;-86
2023/01/11 03:32:22;;;;;;;32.20;14.95;;;;;;;0.23;100.00;98517.66;2585387;28;20054;-87
2023/01/11 03:34:04;;;;;;;36.55;15.25;;;;;;;0.45;100.00;98510.25;2562184;28;20704;-85
2023/01/11 03:35:29;;;;;;;31.92;14.43;;;;;;;0.00;100.00;98518.22;2585268;28;20581;-86
2023/01/11 03:36:53;;;;;;;35.28;15.77;;;;;;;0.10;100.00;98514.91;2585222;28;20085;-85
2023/01/11 03:38:22;;;;;;;38.97;15.13;;;;;;;-0.26;100.00;98516.06;2585414;28;20287;-87
2023/01/11 03:39:51;;;;;;;36.55;16.02;;;;;;;-0.07;100.00;98516.34;2580741;28;20050;-85
2023/01/11 03:41:15;;;;;;;37.08;15.93;;;;;;;0.15;100.00;98512.41;2582285;28;20052;-85
2023/01/11 03:42:34;;;;;;;38.47;15.50;;;;;;;0.06;100.00;98510.56;2585481;28;20042;-85
2023/01/11 03:43:53;;;;;;;41.22;16.85;;;;;;;0.27;100.00;98509.13;2585298;28;20169;-85
2023/01/11 03:45:09;;;;;;;34.00;16.25;;;;;;;0.53;100.00;98509.53;2585328;28;20300;-84
2023/01/11 03:46:39;;;;;;;37.60;16.15;;;;;;;0.08;100.00;98510.59;2585073;28;20819;-85
2023/01/11 03:47:58;;;;;;;40.35;17.77;;;;;;;0.35;100.00;98515.28;2585388;28;20173;-85
2023/01/11 03:49:19;;;;;;;36.70;17.45;;;;;;;0.52;100.00;98512.06;2585418;28;20050;-85
2023/01/11 03:50:35;;;;;;;38.33;16.88;;;;;;;0.59;100.00;98508.75;2585252;28;20072;-84
2023/01/11 03:51:53;;;;;;;37.08;18.15;;;;;;;0.57;100.00;98510.44;2585304;28;20120;-87
2023/01/11 03:53:10;;;;;;;43.97;18.08;;;;;;;0.63;100.00;98502.78;2584501;28;20556;-85
2023/01/11 03:54:29;;;;;;;43.45;18.40;;;;;;;0.75;100.00;98502.03;2586414;28;20532;-86
2023/01/11 03:55:50;;;;;;;32.20;16.48;;;;;;;0.74;100.00;98502.06;2586891;28;20046;-86
2023/01/11 03:57:16;;;;;;;36.53;16.58;;;;;;;0.53;100.00;98506.06;2586697;28;20077;-86
2023/01/11 03:58:32;;;;;;;37.83;17.73;;;;;;;0.83;100.00;98499.56;2586907;28;20049;-85
2023/01/11 03:59:48;;;;;;;35.65;15.20;;;;;;;0.90;100.00;98497.94;2586877;28;20054;-85
2023/01/11 04:01:04;;;;;;;41.30;17.77;;;;;;;0.79;100.00;98496.09;2586804;28;20515;-86
2023/01/11 04:02:26;;;;;;;41.40;17.00;;;;;;;0.84;100.00;98497.00;2586853;28;20100;-86
2023/01/11 04:03:42;;;;;;;39.28;17.50;;;;;;;0.68;100.00;98502.84;2586678;28;20060;-85
2023/01/11 04:04:58;;;;;;;38.42;18.73;;;;;;;0.36;100.00;98498.97;2587048;28;20104;-85
2023/01/11 04:06:14;;;;;;;44.10;18.35;;;;;;;0.47;100.00;98500.84;2586665;28;20050;-84
2023/01/11 04:07:30;;;;;;;44.95;19.05;;;;;;;0.55;100.00;98494.94;2586651;28;20054;-85
2023/01/11 04:08:45;;;;;;;50.83;19.10;;;;;;;0.78;100.00;98496.97;2586844;28;20475;-86
2023/01/11 04:10:01;;;;;;;51.17;19.63;;;;;;;0.87;100.00;98487.59;2586927;28;20112;-86
2023/01/11 04:11:17;;;;;;;43.30;19.05;;;;;;;0.70;100.00;98488.25;2586815;28;20054;-84
2023/01/11 04:12:32;;;;;;;39.25;17.73;;;;;;;0.74;100.00;98486.59;2586844;28;20057;-86
2023/01/11 04:13:48;;;;;;;38.58;17.92;;;;;;;0.70;100.00;98485.69;2586950;28;20526;-85
2023/01/11 04:15:04;;;;;;;35.42;17.00;;;;;;;0.87;100.00;98483.31;2586991;28;20419;-85
2023/01/11 04:16:20;;;;;;;38.10;18.25;;;;;;;1.03;100.00;98480.91;2586259;28;20053;-87
2023/01/11 04:17:35;;;;;;;41.22;18.55;;;;;;;0.83;100.00;98476.38;2587169;28;20060;-87
2023/01/11 04:18:51;;;;;;;43.58;17.95;;;;;;;0.79;100.00;98472.03;2586425;28;20045;-88
2023/01/11 04:20:11;;;;;;;32.90;15.57;;;;;;;0.59;100.00;98470.09;2586974;28;20046;-85
2023/01/11 04:21:28;;;;;;;36.65;17.45;;;;;;;0.61;100.00;98468.41;2586854;28;20078;-85
2023/01/11 04:22:43;;;;;;;39.65;14.68;;;;;;;0.60;100.00;98476.97;2586884;28;20149;-87
2023/01/11 04:23:59;;;;;;;37.05;14.98;;;;;;;0.76;100.00;98462.53;2586800;28;20104;-85
2023/01/11 04:25:14;;;;;;;36.83;15.00;;;;;;;0.91;100.00;98467.03;2586737;28;20111;-84
2023/01/11 04:26:30;;;;;;;31.77;14.23;;;;;;;0.89;100.00;98471.31;2586480;28;20104;-88
2023/01/11 04:27:45;;;;;;;34.97;14.88;;;;;;;0.89;100.00;98462.69;2586734;28;20060;-85
2023/01/11 04:29:01;;;;;;;33.03;14.23;;;;;;;0.84;100.00;98462.66;2586879;28;20104;-86
2023/01/11 04:30:17;;;;;;;38.78;16.38;;;;;;;0.73;100.00;98462.50;2586355;28;20053;-85
2023/01/11 04:31:32;;;;;;;36.78;16.17;;;;;;;0.77;100.00;98463.41;2586487;28;20058;-84
2023/01/11 04:32:48;;;;;;;33.20;15.95;;;;;;;0.90;100.00;98452.41;2586695;28;20050;-84
2023/01/11 04:34:04;;;;;;;38.47;16.27;;;;;;;0.92;100.00;98457.59;2586344;28;20130;-85
2023/01/11 04:35:20;;;;;;;35.20;15.63;;;;;;;1.03;100.00;98455.13;2586334;28;20072;-86
2023/01/11 04:36:35;;;;;;;33.13;14.68;;;;;;;0.89;100.00;98452.38;2586299;28;20101;-84
2023/01/11 04:37:55;;;;;;;39.28;15.95;;;;;;;1.00;100.00;98455.94;2586148;28;20046;-87
2023/01/11 04:39:11;;;;;;;34.80;14.73;;;;;;;0.98;100.00;98455.06;2586588;28;20049;-84
2023/01/11 04:40:27;;;;;;;31.83;14.82;;;;;;;1.19;100.00;98453.53;2586550;28;20819;-87
2023/01/11 04:43:17;;;;;;;34.10;15.55;;;;;;;1.20;100.00;98457.88;2586539;28;20100;-85
2023/01/11 04:44:32;;;;;;;36.00;16.00;;;;;;;1.14;100.00;98466.41;2586403;28;20049;-86
2023/01/11 04:45:48;;;;;;;43.20;16.52;;;;;;;1.15;100.00;98459.53;2584557;28;20069;-84
2023/01/11 04:47:04;;;;;;;39.78;17.63;;;;;;;1.22;100.00;98461.34;2585856;28;20120;-88
2023/01/11 04:48:19;;;;;;;44.63;19.42;;;;;;;1.27;100.00;98463.13;2586435;28;20053;-84
2023/01/11 04:49:35;;;;;;;46.80;20.00;;;;;;;1.20;100.00;98461.31;2586177;28;20045;-85
2023/01/11 04:50:50;;;;;;;55.38;21.05;;;;;;;1.11;100.00;98462.09;2585938;28;20049;-84
2023/01/11 04:52:08;;;;;;;43.28;20.02;;;;;;;0.93;100.00;98461.91;2586295;28;20053;-84
2023/01/11 04:53:23;;;;;;;44.03;20.10;;;;;;;0.84;100.00;98457.50;2586021;28;20092;-83
2023/01/11 04:54:39;;;;;;;42.92;18.88;;;;;;;0.80;100.00;98468.59;2586366;28;20050;-84
2023/01/11 04:55:59;;;;;;;41.50;19.63;;;;;;;0.86;100.00;98458.38;2586312;28;20046;-84
2023/01/11 04:57:16;;;;;;;40.97;19.00;;;;;;;0.95;100.00;98458.47;2586148;28;20124;-83
2023/01/11 04:58:34;;;;;;;43.25;18.85;;;;;;;1.00;100.00;98457.66;2586098;28;20575;-86
2023/01/11 04:59:50;;;;;;;41.88;18.88;;;;;;;1.21;100.00;98460.47;2586529;28;20474;-84
2023/01/11 05:01:16;;;;;;;35.05;18.80;;;;;;;0.93;100.00;98449.00;2585850;28;20164;-87
2023/01/11 05:02:32;;;;;;;35.70;18.90;;;;;;;1.09;100.00;98455.16;2586553;28;20046;-83
2023/01/11 05:03:48;;;;;;;36.63;18.05;;;;;;;1.15;100.00;98460.41;2586627;28;20058;-85
2023/01/11 05:05:05;;;;;;;36.78;16.63;;;;;;;1.15;100.00;98465.56;2586262;28;20424;-84
2023/01/11 05:06:21;;;;;;;39.92;18.63;;;;;;;0.95;100.00;98473.94;2585744;28;20076;-84
2023/01/11 05:07:38;;;;;;;40.65;18.35;;;;;;;0.86;100.00;98463.53;2586153;28;20057;-84
2023/01/11 05:08:53;;;;;;;38.22;18.08;;;;;;;0.91;100.00;98464.44;2586516;28;20184;-85
2023/01/11 05:10:09;;;;;;;39.08;17.55;;;;;;;0.89;100.00;98455.84;2586262;28;20108;-84
2023/01/11 05:11:25;;;;;;;39.72;18.42;;;;;;;0.77;100.00;98451.41;2586424;28;20630;-84
2023/01/11 05:12:41;;;;;;;40.95;18.00;;;;;;;0.58;100.00;98452.03;2586226;28;20133;-84
2023/01/11 05:13:58;;;;;;;34.22;17.15;;;;;;;0.92;100.00;98450.69;2586317;28;20500;-84
2023/01/11 05:15:14;;;;;;;35.45;15.48;;;;;;;0.84;100.00;98445.47;2585876;28;20397;-84
2023/01/11 05:16:29;;;;;;;30.60;14.27;;;;;;;1.18;100.00;98442.38;2585156;28;20177;-83
2023/01/11 05:17:45;;;;;;;37.28;13.07;;;;;;;1.26;100.00;98452.78;2585995;28;20042;-84
2023/01/11 05:19:02;;;;;;;28.63;13.50;;;;;;;1.19;100.00;98448.38;2586004;28;20058;-85
2023/01/11 05:20:18;;;;;;;31.10;15.07;;;;;;;1.32;100.00;98442.50;2586106;28;20050;-83
2023/01/11 05:21:37;;;;;;;40.28;17.45;;;;;;;1.26;100.00;98443.34;2586299;28;20069;-85
2023/01/11 05:22:53;;;;;;;42.40;18.83;;;;;;;1.44;100.00;98434.03;2585682;28;20052;-83
2023/01/11 05:24:12;;;;;;;41.95;20.10;;;;;;;1.40;100.00;98442.59;2586161;28;20058;-85
2023/01/11 05:25:27;;;;;;;43.80;19.85;;;;;;;1.46;100.00;98434.91;2586358;28;20149;-85
2023/01/11 05:26:44;;;;;;;46.83;21.13;;;;;;;1.10;100.00;98436.25;2585953;28;20045;-83
2023/01/11 05:28:00;;;;;;;43.50;19.67;;;;;;;1.24;100.00;98432.09;2585824;28;20143;-84
2023/01/11 05:29:19;;;;;;;39.58;17.73;;;;;;;1.46;100.00;98432.31;2586155;28;20128;-84
2023/01/11 05:30:34;;;;;;;40.00;19.17;;;;;;;1.47;100.00;98436.63;2586027;28;20062;-84
2023/01/11 05:31:50;;;;;;;37.67;19.70;;;;;;;1.27;100.00;98433.84;2585256;28;20053;-84
2023/01/11 05:33:05;;;;;;;39.00;18.02;;;;;;;0.70;100.00;98427.28;2585601;28;20105;-85
2023/01/11 05:34:21;;;;;;;36.85;17.30;;;;;;;0.97;100.00;98423.25;2586249;28;20583;-83
2023/01/11 05:35:37;;;;;;;38.78;18.67;;;;;;;1.12;100.00;98422.56;2585343;28;20053;-86
2023/01/11 05:36:52;;;;;;;34.75;16.90;;;;;;;1.05;100.00;98431.09;2585394;28;20061;-85
2023/01/11 05:38:08;;;;;;;45.30;18.20;;;;;;;1.25;100.00;98431.25;2585817;28;20046;-84
2023/01/11 05:39:24;;;;;;;37.47;17.60;;;;;;;1.36;100.00;98433.97;2585701;28;20081;-85
2023/01/11 05:40:39;;;;;;;40.08;19.05;;;;;;;1.46;100.00;98440.06;2585839;28;20058;-84
2023/01/11 05:41:55;;;;;;;40.25;18.70;;;;;;;1.43;100.00;98434.88;2585981;28;20136;-85
2023/01/11 05:43:11;;;;;;;43.78;18.33;;;;;;;1.11;100.00;98440.56;2586077;28;20053;-84
2023/01/11 05:46:00;;;;;;;29.23;14.05;;;;;;;1.18;100.00;98434.66;2585971;28;20137;-84
2023/01/11 05:47:16;;;;;;;38.42;17.23;;;;;;;1.02;100.00;98435.34;2585761;28;20558;-85
2023/01/11 05:48:32;;;;;;;40.10;18.48;;;;;;;1.11;100.00;98443.16;2585939;28;20497;-84
2023/01/11 05:49:47;;;;;;;41.38;20.50;;;;;;;1.03;100.00;98434.50;2586104;28;20085;-85
2023/01/11 05:51:03;;;;;;;35.20;17.63;;;;;;;1.11;100.00;98448.31;2585759;28;20045;-85
2023/01/11 05:52:18;;;;;;;38.97;19.05;;;;;;;1.22;100.00;98446.72;2585926;28;20100;-85
2023/01/11 05:53:34;;;;;;;44.50;19.50;;;;;;;1.30;100.00;98453.66;2585735;28;20056;-89
2023/01/11 05:54:49;;;;;;;40.85;19.30;;;;;;;1.38;100.00;98452.00;2585935;28;20435;-87
2023/01/11 05:56:05;;;;;;;41.92;17.83;;;;;;;1.36;100.00;98461.44;2585598;28;20429;-86
2023/01/11 05:57:21;;;;;;;35.92;18.40;;;;;;;1.46;100.00;98460.69;2585202;28;20583;-85
2023/01/11 05:58:37;;;;;;;37.38;18.25;;;;;;;1.26;100.00;98455.34;2585306;28;20042;-84
2023/01/11 05:59:52;;;;;;;41.90;18.48;;;;;;;1.33;100.00;98448.53;2585855;28;20053;-87
2023/01/11 06:01:11;;;;;;;38.58;18.83;;;;;;;1.39;100.00;98448.56;2585932;28;20507;-87
2023/01/11 06:02:26;;;;;;;41.55;17.63;;;;;;;1.02;100.00;98445.66;2585894;28;20100;-87
2023/01/11 06:03:43;;;;;;;33.47;16.33;;;;;;;1.32;100.00;98447.66;2585494;28;20780;-86
2023/01/11 06:04:58;;;;;;;28.60;13.00;;;;;;;0.99;100.00;98438.75;2585348;28;20165;-86
2023/01/11 06:06:16;;;;;;;28.92;13.50;;;;;;;1.28;100.00;98443.31;2584311;28;20053;-85
2023/01/11 06:07:31;;;;;;;34.65;14.63;;;;;;;1.44;100.00;98439.19;2585279;28;20045;-86
2023/01/11 06:08:47;;;;;;;26.67;12.80;;;;;;;1.52;100.00;98437.50;2584468;28;20363;-91
2023/01/11 06:10:03;;;;;;;26.25;11.50;;;;;;;1.41;100.00;98431.41;2584851;28;20075;-85
2023/01/11 06:11:18;;;;;;;26.30;12.00;;;;;;;1.48;100.00;98438.34;2585758;28;20053;-85
2023/01/11 06:12:34;;;;;;;10.32;4.20;;;;;;;1.92;100.00;98430.94;2585699;28;20056;-85
2023/01/11 06:13:50;;;;;;;5.75;2.70;;;;;;;2.26;100.00;98431.16;2585922;28;20496;-85
2023/01/11 06:15:06;;;;;;;6.97;2.85;;;;;;;2.48;100.00;98429.53;2585632;28;20050;-85
2023/01/11 06:16:22;;;;;;;5.47;3.00;;;;;;;2.47;100.00;98432.97;2584953;28;20133;-86
2023/01/11 06:17:38;;;;;;;8.90;4.45;;;;;;;2.51;100.00;98420.91;2585436;28;20053;-85
2023/01/11 06:18:54;;;;;;;12.55;5.95;;;;;;;2.56;100.00;98432.16;2586049;28;20428;-85
2023/01/11 06:20:10;;;;;;;15.52;6.32;;;;;;;2.45;100.00;98431.22;2585231;28;20076;-85
2023/01/11 06:21:25;;;;;;;12.38;4.13;;;;;;;2.60;100.00;98433.03;2585789;28;21063;-85
2023/01/11 06:22:41;;;;;;;10.43;4.82;;;;;;;2.40;100.00;98434.66;2585969;28;20107;-86
2023/01/11 06:23:57;;;;;;;8.20;3.78;;;;;;;2.30;100.00;98430.28;2585549;28;20052;-86